Terminal Aerodrome Forecast
Issued by NWS

Home | Current Version | Previous Version | Text Only | Print | Product List | Glossary On
Versions: 1 2 3 4 5 6 7 8 9 10 11 12 13 14 15 16
000
FTUS46 KSEW 290800 AAB
TAFPAE
TAF AMD
KPAE 290806Z 2908/3006 VRB05KT 2SM -SHSN BKN006 OVC015
      TEMPO 2908/2911 1SM -SHSN OVC004
     FM291100 30008KT P6SM -SHSN SCT008 OVC015
     FM291600 02012G22KT P6SM SCT040
     FM300000 02012KT P6SM SKC=

USA.gov is the U.S. government's official web portal to all federal, state and local government web resources and services.